createdAt,value
2023-05-08T00:01:18.120Z,0.90
2023-05-08T00:03:51.622Z,0.70
2023-05-08T00:06:36.823Z,0.60
2023-05-08T00:09:15.115Z,0.53
2023-05-08T00:11:53.923Z,0.50
2023-05-08T00:14:28.229Z,0.50
2023-05-08T00:16:59.351Z,0.57
2023-05-08T00:19:31.166Z,0.57
2023-05-08T00:22:05.299Z,0.30
2023-05-08T00:24:37.342Z,0.60
2023-05-08T00:27:11.155Z,0.50
2023-05-08T00:29:41.940Z,1.23
2023-05-08T00:32:19.066Z,0.55
2023-05-08T00:34:50.767Z,0.67
2023-05-08T00:37:32.020Z,0.40
2023-05-08T00:40:02.766Z,0.80
2023-05-08T00:42:34.824Z,0.63
2023-05-08T00:47:48.359Z,0.80
2023-05-08T00:50:18.123Z,0.47
2023-05-08T00:52:50.963Z,0.50
2023-05-08T00:55:25.803Z,0.80
2023-05-08T00:57:56.784Z,0.50
2023-05-08T01:00:29.860Z,0.90
2023-05-08T01:03:10.253Z,0.50
2023-05-08T01:05:53.970Z,0.90
2023-05-08T01:08:24.787Z,0.50
2023-05-08T01:11:14.034Z,0.88
2023-05-08T01:14:23.922Z,0.60
2023-05-08T01:17:18.940Z,0.30
2023-05-08T01:20:31.603Z,0.40
2023-05-08T01:23:39.027Z,0.30
2023-05-08T01:26:47.318Z,0.77
2023-05-08T01:30:16.124Z,0.43
2023-05-08T01:32:52.930Z,0.50
2023-05-08T01:35:54.277Z,0.30
2023-05-08T01:39:35.982Z,0.63
2023-05-08T01:42:47.689Z,0.57
2023-05-08T01:45:41.045Z,0.90
2023-05-08T01:48:39.107Z,0.77
2023-05-08T01:51:16.117Z,0.40
2023-05-08T01:53:54.686Z,0.57
2023-05-08T01:56:27.130Z,1.00
2023-05-08T01:59:02.612Z,0.50
2023-05-08T02:01:35.407Z,0.60
2023-05-08T02:04:09.777Z,0.60
2023-05-08T02:06:53.158Z,0.67
2023-05-08T02:09:31.304Z,0.50
2023-05-08T02:12:07.686Z,0.73
2023-05-08T02:14:38.876Z,0.60
2023-05-08T02:17:10.873Z,0.60
2023-05-08T02:19:44.759Z,1.00
2023-05-08T02:22:15.110Z,0.60
2023-05-08T02:24:48.452Z,1.10
2023-05-08T02:27:19.944Z,0.37
2023-05-08T02:29:48.722Z,0.65
2023-05-08T02:32:26.318Z,0.87
2023-05-08T02:35:03.180Z,0.80
2023-05-08T02:37:36.180Z,0.83
2023-05-08T02:40:08.024Z,1.00
2023-05-08T02:42:54.734Z,0.67
2023-05-08T02:45:32.487Z,1.03
2023-05-08T02:48:32.873Z,1.00
2023-05-08T02:51:12.291Z,0.80
2023-05-08T02:53:51.701Z,0.93
2023-05-08T02:56:45.161Z,0.70
2023-05-08T02:59:30.374Z,0.87
2023-05-08T03:02:11.753Z,0.90
2023-05-08T03:04:55.587Z,0.70
2023-05-08T03:07:37.443Z,0.80
2023-05-08T03:10:19.628Z,0.60
2023-05-08T03:15:49.906Z,0.73
2023-05-08T03:18:28.403Z,0.60
2023-05-08T03:21:02.329Z,0.80
2023-05-08T03:23:31.944Z,1.03
2023-05-08T03:26:08.873Z,0.63
2023-05-08T03:28:46.342Z,1.20
2023-05-08T03:31:18.931Z,0.93
2023-05-08T03:33:53.539Z,1.00
2023-05-08T03:36:37.188Z,1.07
2023-05-08T03:39:18.605Z,1.03
2023-05-08T03:41:54.714Z,1.00
2023-05-08T03:44:25.632Z,0.80
2023-05-08T03:47:01.434Z,0.80
2023-05-08T03:49:32.270Z,0.70
2023-05-08T03:52:05.286Z,1.00
2023-05-08T03:54:41.302Z,0.97
2023-05-08T03:57:11.940Z,0.83
2023-05-08T04:00:00.373Z,0.97
2023-05-08T04:02:50.623Z,0.93
2023-05-08T04:09:15.963Z,0.70
2023-05-08T04:11:58.162Z,0.97
2023-05-08T04:14:34.041Z,1.13
2023-05-08T04:17:10.222Z,0.93
2023-05-08T04:19:48.594Z,1.23
2023-05-08T04:22:26.709Z,0.97
2023-05-08T04:25:02.937Z,1.03
2023-05-08T04:27:32.619Z,1.40
2023-05-08T04:30:05.206Z,1.10
2023-05-08T04:32:48.272Z,1.50
2023-05-08T04:35:23.859Z,1.47
2023-05-08T04:38:03.812Z,1.40
2023-05-08T04:40:34.754Z,1.13
2023-05-08T04:43:09.825Z,1.33
2023-05-08T04:45:45.485Z,0.97
2023-05-08T04:48:26.188Z,0.90
2023-05-08T04:51:03.626Z,1.30
2023-05-08T04:53:37.981Z,1.30
2023-05-08T04:56:10.892Z,1.80
2023-05-08T04:58:42.801Z,0.80
2023-05-08T05:01:14.821Z,1.43
2023-05-08T05:03:48.678Z,1.13
2023-05-08T05:06:20.044Z,1.20
2023-05-08T05:08:53.678Z,1.27
2023-05-08T05:11:26.916Z,0.90
2023-05-08T05:16:55.717Z,1.80
2023-05-08T05:19:29.343Z,1.37
2023-05-08T05:21:59.969Z,1.37
2023-05-08T05:24:30.097Z,1.10
2023-05-08T05:27:03.013Z,1.25
2023-05-08T05:29:35.246Z,1.10
2023-05-08T05:32:09.168Z,1.33
2023-05-08T05:37:27.077Z,1.40
2023-05-08T05:39:59.364Z,1.50
2023-05-08T05:45:17.392Z,1.35
2023-05-08T05:47:57.552Z,1.10
2023-05-08T05:50:29.881Z,1.10
2023-05-08T05:53:04.108Z,1.00
2023-05-08T05:55:34.355Z,0.93
2023-05-08T05:58:06.570Z,1.10
2023-05-08T06:00:40.820Z,1.03
2023-05-08T06:03:15.540Z,1.10
2023-05-08T06:05:49.858Z,0.73
2023-05-08T06:08:33.510Z,0.70
2023-05-08T06:11:12.039Z,1.13
2023-05-08T06:13:44.349Z,1.10
2023-05-08T06:16:16.318Z,1.30
2023-05-08T06:21:29.450Z,1.00
2023-05-08T06:24:01.207Z,1.03
2023-05-08T06:31:48.176Z,1.37
2023-05-08T06:34:17.459Z,1.85
2023-05-08T06:36:54.015Z,1.20
2023-05-08T06:39:23.804Z,1.50
2023-05-08T06:41:54.334Z,1.60
2023-05-08T06:44:34.273Z,1.20
2023-05-08T06:47:10.200Z,1.40
2023-05-08T06:49:45.753Z,1.30
2023-05-08T06:52:30.009Z,1.20
2023-05-08T06:55:00.255Z,1.40
2023-05-08T06:57:31.264Z,1.43
2023-05-08T07:00:02.890Z,1.40
2023-05-08T07:02:37.921Z,1.53
2023-05-08T07:05:12.638Z,1.00
2023-05-08T07:07:50.394Z,1.40
2023-05-08T07:10:21.105Z,1.60
2023-05-08T07:13:01.116Z,1.87
2023-05-08T07:15:35.818Z,1.70
2023-05-08T07:18:04.099Z,1.87
2023-05-08T07:20:32.669Z,1.20
2023-05-08T07:23:04.241Z,1.70
2023-05-08T07:25:37.737Z,1.45
2023-05-08T07:28:13.834Z,1.70
2023-05-08T07:30:47.831Z,1.80
2023-05-08T07:36:07.236Z,1.57
2023-05-08T07:38:38.693Z,1.60
2023-05-08T07:41:10.394Z,1.65
2023-05-08T07:46:28.873Z,1.93
2023-05-08T07:49:04.355Z,1.70
2023-05-08T07:51:33.464Z,0.93
2023-05-08T07:54:06.693Z,1.83
2023-05-08T07:56:38.442Z,1.57
2023-05-08T08:01:45.990Z,1.63
2023-05-08T08:04:21.026Z,1.63
2023-05-08T08:07:01.293Z,2.00
2023-05-08T08:09:41.665Z,1.40
2023-05-08T08:12:13.020Z,1.70
2023-05-08T08:14:43.610Z,1.60
2023-05-08T08:17:14.718Z,1.60
2023-05-08T08:19:51.591Z,1.30
2023-05-08T08:22:38.176Z,1.60
2023-05-08T08:25:08.261Z,1.40
2023-05-08T08:27:40.368Z,1.50
2023-05-08T08:30:17.414Z,1.70
2023-05-08T08:32:53.786Z,1.70
2023-05-08T08:35:32.889Z,1.40
2023-05-08T08:38:13.473Z,1.47
2023-05-08T08:40:48.389Z,1.83
2023-05-08T08:43:19.859Z,1.60
2023-05-08T08:45:54.076Z,1.50
2023-05-08T08:48:28.440Z,2.00
2023-05-08T08:51:13.397Z,1.40
2023-05-08T08:53:47.429Z,1.60
2023-05-08T08:56:25.610Z,1.40
2023-05-08T08:59:04.418Z,1.47
2023-05-08T09:01:52.139Z,1.50
2023-05-08T09:04:29.793Z,1.47
2023-05-08T09:07:14.097Z,1.33
2023-05-08T09:09:46.128Z,1.80
2023-05-08T09:15:04.183Z,1.37
2023-05-08T09:17:50.232Z,1.43
2023-05-08T09:20:28.017Z,1.77
2023-05-08T09:22:57.039Z,1.50
2023-05-08T09:28:37.878Z,1.70
2023-05-08T09:31:09.178Z,1.50
2023-05-08T09:33:50.572Z,1.13
2023-05-08T09:36:32.247Z,1.77
2023-05-08T09:39:03.215Z,1.58
2023-05-08T09:41:34.257Z,1.90
2023-05-08T09:44:08.009Z,1.92
2023-05-08T09:46:41.819Z,1.90
2023-05-08T09:49:19.254Z,2.03
2023-05-08T09:52:02.009Z,1.57
2023-05-08T09:54:36.052Z,1.50
2023-05-08T10:00:08.150Z,1.67
2023-05-08T10:02:55.552Z,2.07
2023-05-08T10:05:39.286Z,1.70
2023-05-08T10:08:29.205Z,1.80
2023-05-08T10:11:19.337Z,1.57
2023-05-08T10:13:51.253Z,1.43
2023-05-08T10:16:26.511Z,1.77
2023-05-08T10:19:15.176Z,1.60
2023-05-08T10:21:52.115Z,1.10
2023-05-08T10:24:31.926Z,1.37
2023-05-08T10:27:46.005Z,1.67
2023-05-08T10:30:42.473Z,1.53
2023-05-08T10:33:18.071Z,1.50
2023-05-08T10:35:52.073Z,1.27
2023-05-08T10:38:28.941Z,1.90
2023-05-08T10:41:03.833Z,1.73
2023-05-08T10:43:44.901Z,1.17
2023-05-08T10:46:44.260Z,1.23
2023-05-08T10:49:31.689Z,1.53
2023-05-08T10:52:31.093Z,1.50
2023-05-08T10:55:01.087Z,1.33
2023-05-08T10:57:39.068Z,1.60
2023-05-08T11:00:19.127Z,1.60
2023-05-08T11:02:57.409Z,1.77
2023-05-08T11:05:30.717Z,1.30
2023-05-08T11:08:03.954Z,1.20
2023-05-08T11:10:44.833Z,1.27
2023-05-08T11:13:18.759Z,1.93
2023-05-08T11:16:06.839Z,1.50
2023-05-08T11:18:49.219Z,1.27
2023-05-08T11:24:04.805Z,1.13
2023-05-08T11:26:48.568Z,1.50
2023-05-08T11:29:21.615Z,1.10
2023-05-08T11:31:53.674Z,1.33
2023-05-08T11:34:52.297Z,1.80
2023-05-08T11:37:27.788Z,1.57
2023-05-08T11:42:48.197Z,1.77
2023-05-08T11:45:34.811Z,1.83
2023-05-08T11:48:12.746Z,1.67
2023-05-08T11:50:47.206Z,1.40
2023-05-08T11:53:16.527Z,1.70
2023-05-08T11:55:52.129Z,1.50
2023-05-08T12:01:10.194Z,1.80
2023-05-08T12:03:47.015Z,1.73
2023-05-08T12:09:05.952Z,1.87
2023-05-08T12:11:38.638Z,1.27
2023-05-08T12:14:13.031Z,1.37
2023-05-08T12:16:43.672Z,2.13
2023-05-08T12:22:00.719Z,1.63
2023-05-08T12:24:32.765Z,2.00
2023-05-08T12:29:52.332Z,1.93
2023-05-08T12:32:27.157Z,1.57
2023-05-08T12:35:02.546Z,1.50
2023-05-08T12:37:32.830Z,1.47
2023-05-08T12:40:04.194Z,1.47
2023-05-08T12:42:54.932Z,2.50
2023-05-08T12:45:33.283Z,1.40
2023-05-08T12:48:19.733Z,1.73
2023-05-08T12:50:53.525Z,1.97
2023-05-08T12:53:26.095Z,1.67
2023-05-08T12:56:01.070Z,2.33
2023-05-08T12:58:37.928Z,2.07
2023-05-08T13:01:20.554Z,2.23
2023-05-08T13:04:04.124Z,1.80
2023-05-08T13:06:42.178Z,1.50
2023-05-08T13:09:18.745Z,1.93
2023-05-08T13:11:54.137Z,1.50
2023-05-08T13:14:39.528Z,1.60
2023-05-08T13:17:10.478Z,1.67
2023-05-08T13:19:46.444Z,1.90
2023-05-08T13:22:29.329Z,1.47
2023-05-08T13:25:00.414Z,1.77
2023-05-08T13:27:31.310Z,1.63
2023-05-08T13:30:17.604Z,2.07
2023-05-08T13:32:56.642Z,2.30
2023-05-08T13:35:26.952Z,2.00
2023-05-08T13:38:00.474Z,2.30
2023-05-08T13:40:36.202Z,2.23
2023-05-08T13:43:15.063Z,1.73
2023-05-08T13:45:51.987Z,2.17
2023-05-08T13:48:21.122Z,2.20
2023-05-08T13:51:05.644Z,2.73
2023-05-08T13:53:38.321Z,2.07
2023-05-08T13:56:09.230Z,2.40
2023-05-08T14:01:28.063Z,2.03
2023-05-08T14:04:01.331Z,2.30
2023-05-08T14:06:35.919Z,1.90
2023-05-08T14:09:10.966Z,1.97
2023-05-08T14:11:39.411Z,2.43
2023-05-08T14:17:06.875Z,1.90
2023-05-08T14:19:42.909Z,2.93
2023-05-08T14:22:15.614Z,2.63
2023-05-08T14:24:45.559Z,2.90
2023-05-08T14:27:19.471Z,1.97
2023-05-08T14:29:49.682Z,2.90
2023-05-08T14:32:23.442Z,2.30
2023-05-08T14:34:54.742Z,2.50
2023-05-08T14:37:25.550Z,2.80
2023-05-08T14:39:58.625Z,2.40
2023-05-08T14:42:26.853Z,2.90
2023-05-08T14:47:44.525Z,2.77
2023-05-08T14:50:17.676Z,2.37
2023-05-08T14:52:57.203Z,2.93
2023-05-08T14:55:28.969Z,2.83
2023-05-08T14:57:59.600Z,2.30
2023-05-08T15:00:33.267Z,2.63
2023-05-08T15:03:09.675Z,2.30
2023-05-08T15:05:43.686Z,2.57
2023-05-08T15:08:19.994Z,3.40
2023-05-08T15:10:51.246Z,2.43
2023-05-08T15:13:23.942Z,2.28
2023-05-08T15:16:00.551Z,2.40
2023-05-08T15:18:32.441Z,2.63
2023-05-08T15:21:09.505Z,2.03
2023-05-08T15:23:44.388Z,2.57
2023-05-08T15:26:18.115Z,2.33
2023-05-08T15:28:54.833Z,2.83
2023-05-08T15:31:27.719Z,2.47
2023-05-08T15:34:00.994Z,2.13
2023-05-08T15:36:39.846Z,2.33
2023-05-08T15:39:09.981Z,2.17
2023-05-08T15:41:44.181Z,2.53
2023-05-08T15:44:18.751Z,2.40
2023-05-08T15:46:49.888Z,2.90
2023-05-08T15:49:20.070Z,2.45
2023-05-08T15:51:54.671Z,2.70
2023-05-08T15:54:25.016Z,2.73
2023-05-08T15:56:55.362Z,2.33
2023-05-08T15:59:23.222Z,2.27
2023-05-08T16:02:01.170Z,2.80
2023-05-08T16:07:29.618Z,2.53
2023-05-08T16:10:10.157Z,2.53
2023-05-08T16:12:46.608Z,2.10
2023-05-08T16:18:06.511Z,2.57
2023-05-08T16:20:40.259Z,2.30
2023-05-08T16:23:17.926Z,2.10
2023-05-08T16:25:45.993Z,2.47
2023-05-08T16:28:19.667Z,1.93
2023-05-08T16:30:50.756Z,2.47
2023-05-08T16:33:21.349Z,2.80
2023-05-08T16:35:57.035Z,2.58
2023-05-08T16:38:28.082Z,2.60
2023-05-08T16:41:02.157Z,2.30
2023-05-08T16:43:36.329Z,2.60
2023-05-08T16:46:14.376Z,3.20
2023-05-08T16:48:45.739Z,2.97
2023-05-08T16:51:19.988Z,2.57
2023-05-08T16:53:54.520Z,3.00
2023-05-08T16:56:29.234Z,3.83
2023-05-08T16:59:08.526Z,3.33
2023-05-08T17:01:40.067Z,3.27
2023-05-08T17:06:45.917Z,3.37
2023-05-08T17:09:20.981Z,2.72
2023-05-08T17:14:40.782Z,2.67
2023-05-08T17:17:21.867Z,3.47
2023-05-08T17:19:58.297Z,2.97
2023-05-08T17:22:29.889Z,2.63
2023-05-08T17:25:04.800Z,2.78
2023-05-08T17:27:48.387Z,2.93
2023-05-08T17:30:34.785Z,3.30
2023-05-08T17:33:08.482Z,2.93
2023-05-08T17:35:43.105Z,4.10
2023-05-08T17:38:13.666Z,8.93
2023-05-08T17:40:46.760Z,11.40
2023-05-08T17:43:33.549Z,15.50
2023-05-08T17:46:18.725Z,7.63
2023-05-08T17:48:49.683Z,4.17
2023-05-08T17:54:05.679Z,3.00
2023-05-08T17:56:52.061Z,3.53
2023-05-08T17:59:31.291Z,6.90
2023-05-08T18:04:49.342Z,5.50
2023-05-08T18:07:19.550Z,4.40
2023-05-08T18:09:56.966Z,4.33
2023-05-08T18:12:43.029Z,12.97
2023-05-08T18:15:13.811Z,12.03
2023-05-08T18:17:45.021Z,9.35
2023-05-08T18:20:18.380Z,3.97
2023-05-08T18:22:55.851Z,2.97
2023-05-08T18:25:29.736Z,2.57
2023-05-08T18:28:02.967Z,2.17
2023-05-08T18:30:48.918Z,2.00
2023-05-08T18:33:22.118Z,2.43
2023-05-08T18:35:54.404Z,2.47
2023-05-08T18:38:22.520Z,2.37
2023-05-08T18:40:50.956Z,2.63
2023-05-08T18:43:24.761Z,2.23
2023-05-08T18:45:57.571Z,2.30
2023-05-08T18:48:35.221Z,2.17
2023-05-08T18:51:08.913Z,3.00
2023-05-08T18:53:40.847Z,2.20
2023-05-08T18:56:13.963Z,2.00
2023-05-08T18:58:50.889Z,2.30
2023-05-08T19:01:21.735Z,2.20
2023-05-08T19:04:01.868Z,2.20
2023-05-08T19:06:31.567Z,2.33
2023-05-08T19:09:07.747Z,1.70
2023-05-08T19:11:38.254Z,2.20
2023-05-08T19:14:07.544Z,2.10
2023-05-08T19:19:20.618Z,3.33
2023-05-08T19:22:06.242Z,3.03
2023-05-08T19:24:37.678Z,2.47
2023-05-08T19:27:14.255Z,3.20
2023-05-08T19:29:46.173Z,3.00
2023-05-08T19:32:24.907Z,2.20
2023-05-08T19:35:00.412Z,2.47
2023-05-08T19:37:30.801Z,2.37
2023-05-08T19:40:05.049Z,2.67
2023-05-08T19:42:35.529Z,2.37
2023-05-08T19:45:06.127Z,2.07
2023-05-08T19:47:51.554Z,2.57
2023-05-08T19:50:22.946Z,1.93
2023-05-08T19:52:53.314Z,2.80
2023-05-08T19:55:24.072Z,2.03
2023-05-08T19:58:09.051Z,2.30
2023-05-08T20:00:51.576Z,2.70
2023-05-08T20:03:25.484Z,2.10
2023-05-08T20:05:59.885Z,2.03
2023-05-08T20:08:30.821Z,2.20
2023-05-08T20:11:04.614Z,2.55
2023-05-08T20:13:41.517Z,2.30
2023-05-08T20:16:18.959Z,2.53
2023-05-08T20:18:49.653Z,2.53
2023-05-08T20:21:20.339Z,1.87
2023-05-08T20:23:54.081Z,2.40
2023-05-08T20:26:35.986Z,2.03
2023-05-08T20:29:04.160Z,2.60
2023-05-08T20:31:33.311Z,2.53
2023-05-08T20:34:03.856Z,2.20
2023-05-08T20:36:33.560Z,1.83
2023-05-08T20:39:07.448Z,2.33
2023-05-08T20:41:41.674Z,2.53
2023-05-08T20:44:14.280Z,2.50
2023-05-08T20:47:03.263Z,2.70
2023-05-08T20:49:35.478Z,2.40
2023-05-08T20:52:09.439Z,2.25
2023-05-08T20:54:38.469Z,2.70
2023-05-08T20:57:12.280Z,2.23
2023-05-08T20:59:42.843Z,3.47
2023-05-08T21:02:31.053Z,3.60
2023-05-08T21:04:59.785Z,2.67
2023-05-08T21:07:31.150Z,2.40
2023-05-08T21:10:11.926Z,2.65
2023-05-08T21:12:40.257Z,3.08
2023-05-08T21:15:18.766Z,2.30
2023-05-08T21:17:53.266Z,2.53
2023-05-08T21:20:27.255Z,2.30
2023-05-08T21:22:55.736Z,2.70
2023-05-08T21:25:31.953Z,2.30
2023-05-08T21:30:57.092Z,2.60
2023-05-08T21:33:24.732Z,2.72
2023-05-08T21:35:58.431Z,2.60
2023-05-08T21:38:28.990Z,2.23
2023-05-08T21:41:00.536Z,2.50
2023-05-08T21:43:37.946Z,2.53
2023-05-08T21:46:21.692Z,2.27
2023-05-08T21:48:51.584Z,2.20
2023-05-08T21:51:20.885Z,2.00
2023-05-08T21:53:54.269Z,2.50
2023-05-08T21:56:28.367Z,2.47
2023-05-08T21:59:04.342Z,2.20
2023-05-08T22:01:36.984Z,2.63
2023-05-08T22:04:07.859Z,2.33
2023-05-08T22:06:46.395Z,2.67
2023-05-08T22:12:05.574Z,2.20
2023-05-08T22:14:50.415Z,2.67
2023-05-08T22:17:22.121Z,2.43
2023-05-08T22:19:52.538Z,2.90
2023-05-08T22:22:31.280Z,2.87
2023-05-08T22:25:03.345Z,2.47
2023-05-08T22:27:40.059Z,2.57
2023-05-08T22:30:11.639Z,2.30
2023-05-08T22:32:40.852Z,1.75
2023-05-08T22:35:10.521Z,2.20
2023-05-08T22:37:51.015Z,2.40
2023-05-08T22:40:30.599Z,2.40
2023-05-08T22:43:00.330Z,2.33
2023-05-08T22:45:30.821Z,2.50
2023-05-08T22:48:04.897Z,2.80
2023-05-08T22:50:36.619Z,2.00
2023-05-08T22:55:56.333Z,2.43
2023-05-08T22:58:31.733Z,2.30
2023-05-08T23:01:16.291Z,2.50
2023-05-08T23:04:04.140Z,2.97
2023-05-08T23:06:38.052Z,2.53
2023-05-08T23:09:19.811Z,2.70
2023-05-08T23:12:07.069Z,2.50
2023-05-08T23:14:37.402Z,3.03
2023-05-08T23:17:10.804Z,2.10
2023-05-08T23:22:38.859Z,2.77
2023-05-08T23:25:12.965Z,2.77
2023-05-08T23:27:57.109Z,2.10
2023-05-08T23:30:38.670Z,1.90
2023-05-08T23:33:09.175Z,2.85
2023-05-08T23:35:45.171Z,2.07
2023-05-08T23:38:18.777Z,2.27
2023-05-08T23:40:54.113Z,2.17
2023-05-08T23:46:15.068Z,2.03
2023-05-08T23:48:49.327Z,2.60
2023-05-08T23:51:19.828Z,3.03
2023-05-08T23:54:04.413Z,2.53
2023-05-08T23:56:34.343Z,2.60
2023-05-08T23:59:04.720Z,2.43
